M I D A S
Marine Information and Data Acquisition System
Tripno 497 of the Zeeleeuw from 2003-05-15 07:18:04 to 2003-05-15 09:40:24
Back to CruiseResearch ActivitiesStationsMapUnderway DataData graphs

EquipmentUnitsComment
TimeDGPSUTC
LatitudeDGPSDM.mWGS84
LongitudeDGPSDM.mWGS84
HeadingGyrodeg 
SOGDGPSknotsSpeed over ground
COGDGPSdegCourse over ground
DepthEcho soundermeters200 kHz
Missing or incorrect values are displayed as -999
Navigation data collected by the RV Zeeleeuw from 2003-05-15 07:18:04 to 2003-05-15 09:40:24
                                                                                    Next 1000 lines
Time Latitude Longitude Heading SOG COG Depth
2003-05-15 07:18:10 51°13.6 2°56.1 110.3 0.1 297 6.5
2003-05-15 07:18:16 51°13.6 2°56.1 110.1 0.2 286 6.6
2003-05-15 07:18:20 51°13.6 2°56.1 110.1 0.4 303 6.5
2003-05-15 07:18:26 51°13.6 2°56.1 110.2 1 288 6.5
2003-05-15 07:18:30 51°13.6 2°56.1 110.5 1.6 295 6.6
2003-05-15 07:18:36 51°13.6 2°56.09 111 1.9 290 6.7
2003-05-15 07:18:40 51°13.6 2°56.09 111.2 2.2 293 -999
2003-05-15 07:18:48 51°13.61 2°56.08 111.6 2.8 292 -999
2003-05-15 07:18:52 51°13.61 2°56.08 111.7 3 293 -999
2003-05-15 07:18:58 51°13.61 2°56.07 112.1 3.3 291 -999
2003-05-15 07:19:02 51°13.61 2°56.07 112.5 3.5 293 -999
2003-05-15 07:19:08 51°13.61 2°56.06 112.6 3.7 292 -999
2003-05-15 07:19:14 51°13.61 2°56.05 112.6 3.9 291 -999
2003-05-15 07:19:18 51°13.62 2°56.04 112.4 4.2 291 -999
2003-05-15 07:19:24 51°13.62 2°56.03 112.2 4.3 290 -999
2003-05-15 07:19:30 51°13.62 2°56.02 112.1 4.5 289 -999
2003-05-15 07:19:34 51°13.62 2°56.01 112.2 4.6 290 -999
2003-05-15 07:19:40 51°13.63 2°56 112.8 4.6 289 -999
2003-05-15 07:19:44 51°13.63 2°55.99 113.2 4.7 290 -999
2003-05-15 07:19:50 51°13.63 2°55.98 113.9 4.7 290 -999
2003-05-15 07:19:56 51°13.63 2°55.97 114.5 4.8 292 -999
2003-05-15 07:20:00 51°13.63 2°55.96 115.1 4.8 292 -999
2003-05-15 07:20:06 51°13.64 2°55.95 115.7 4.8 293 -999
2003-05-15 07:20:10 51°13.64 2°55.94 116.1 4.8 293 -999
2003-05-15 07:20:16 51°13.64 2°55.93 116.5 5 294 -999
2003-05-15 07:20:20 51°13.65 2°55.92 116.8 5 294 -999
2003-05-15 07:20:26 51°13.65 2°55.91 117.1 4.9 294 -999
2003-05-15 07:20:30 51°13.65 2°55.9 117.5 4.9 295 -999
2003-05-15 07:20:36 51°13.65 2°55.89 117.5 5 295 -999
2003-05-15 07:20:40 51°13.66 2°55.88 117.4 5 295 -999
2003-05-15 07:20:46 51°13.66 2°55.87 117 5 294 -999
2003-05-15 07:20:50 51°13.66 2°55.86 116.5 5 294 -999
2003-05-15 07:20:56 51°13.67 2°55.85 115.9 4.7 294 -999
2003-05-15 07:21:00 51°13.67 2°55.84 115.2 4.5 293 -999
2003-05-15 07:21:06 51°13.67 2°55.83 114.3 4.3 292 -999
2003-05-15 07:21:10 51°13.67 2°55.82 113.2 4.2 292 -999
2003-05-15 07:21:16 51°13.67 2°55.82 112 4 290 -999
2003-05-15 07:21:20 51°13.68 2°55.81 111 3.9 290 8.5
2003-05-15 07:21:24 51°13.68 2°55.8 110.1 3.8 289 8.4
2003-05-15 07:21:28 51°13.68 2°55.8 109 3.5 289 8.6
2003-05-15 07:21:32 51°13.68 2°55.79 108.1 3.2 287 8.9
2003-05-15 07:21:38 51°13.68 2°55.78 106.6 2.9 289 9.8
2003-05-15 07:21:42 51°13.68 2°55.78 105.2 2.5 286 10
2003-05-15 07:21:46 51°13.68 2°55.77 103.4 2.2 284 10
2003-05-15 07:21:50 51°13.68 2°55.77 101 1.9 286 10.1
2003-05-15 07:21:56 51°13.68 2°55.77 98.1 1.6 283 -999
2003-05-15 07:22:00 51°13.68 2°55.76 95.6 1.2 288 10.2
2003-05-15 07:22:06 51°13.68 2°55.76 92.9 1 285 10.1
2003-05-15 07:22:10 51°13.69 2°55.76 90.2 0.8 295 10.1
2003-05-15 07:22:16 51°13.69 2°55.76 87.4 0.4 305 5.9
2003-05-15 07:22:20 51°13.69 2°55.76 84.1 0.4 337 5.8
2003-05-15 07:22:26 51°13.69 2°55.76 80.3 0.4 23 -999
2003-05-15 07:22:32 51°13.69 2°55.76 76.1 0.7 38 10.2
2003-05-15 07:22:36 51°13.69 2°55.76 71.4 0.8 46 10.2
2003-05-15 07:22:40 51°13.69 2°55.76 66.3 1 44 10.3
2003-05-15 07:22:46 51°13.69 2°55.76 61 1.3 42 -999
2003-05-15 07:22:52 51°13.69 2°55.77 55.6 1.3 40 10.2
2003-05-15 07:22:56 51°13.69 2°55.77 50.4 1.4 32 10.2
2003-05-15 07:23:00 51°13.69 2°55.77 46.5 1.3 32 10.1
2003-05-15 07:23:06 51°13.7 2°55.77 43.6 0.9 21 10.2
2003-05-15 07:23:10 51°13.7 2°55.77 40.5 0.4 355 10.2
2003-05-15 07:23:16 51°13.7 2°55.77 37.4 0.3 299 10.1
2003-05-15 07:23:20 51°13.7 2°55.77 34.9 0.5 251 10.1
2003-05-15 07:23:26 51°13.7 2°55.77 33 0.9 227 10.2
2003-05-15 07:23:30 51°13.7 2°55.77 31.5 1.3 223 10.1
2003-05-15 07:23:36 51°13.69 2°55.76 29.5 1.5 218 10.5
2003-05-15 07:23:40 51°13.69 2°55.76 27.9 1.6 217 -999
2003-05-15 07:23:48 51°13.69 2°55.76 25.9 1.5 210 -999
2003-05-15 07:23:52 51°13.69 2°55.76 24.4 1.4 216 -999
2003-05-15 07:23:58 51°13.69 2°55.76 22.9 1.5 198 -999
2003-05-15 07:24:02 51°13.69 2°55.75 21.7 1.3 199 -999
2003-05-15 07:24:08 51°13.68 2°55.75 20.1 0.6 217 -999
2003-05-15 07:24:12 51°13.68 2°55.75 17.7 0.3 249 -999
2003-05-15 07:24:18 51°13.68 2°55.75 15 0.2 286 -999
2003-05-15 07:24:24 51°13.68 2°55.75 11.9 0.4 331 -999
2003-05-15 07:24:28 51°13.69 2°55.75 8.5 0.7 340 -999
2003-05-15 07:24:34 51°13.69 2°55.75 4.9 0.8 345 -999
2003-05-15 07:24:40 51°13.69 2°55.75 0.9 1.1 344 -999
2003-05-15 07:24:44 51°13.69 2°55.75 356.6 1.4 342 -999
2003-05-15 07:24:50 51°13.69 2°55.75 352 1.5 338 -999
2003-05-15 07:24:56 51°13.69 2°55.75 347.1 1.8 337 -999
2003-05-15 07:25:00 51°13.7 2°55.75 341.1 2 331 -999
2003-05-15 07:25:06 51°13.7 2°55.74 337.3 2.2 329 -999
2003-05-15 07:25:10 51°13.7 2°55.74 335 2.4 328 -999
2003-05-15 07:25:16 51°13.71 2°55.74 333.9 2.8 326 10.4
2003-05-15 07:25:20 51°13.71 2°55.73 333.8 3 329 10.6
2003-05-15 07:25:24 51°13.71 2°55.73 334.4 3.3 327 10.7
2003-05-15 07:25:28 51°13.71 2°55.73 335.2 3.6 331 10.4
2003-05-15 07:25:34 51°13.72 2°55.72 335.8 3.9 329 9.6
2003-05-15 07:25:38 51°13.72 2°55.72 336 4.1 330 9.5
2003-05-15 07:25:42 51°13.73 2°55.72 336 4.3 330 9.1
2003-05-15 07:25:46 51°13.73 2°55.71 336 4.5 331 9.1
2003-05-15 07:25:50 51°13.73 2°55.71 336 4.8 330 9.1
2003-05-15 07:25:56 51°13.74 2°55.7 335.5 4.9 330 9.1
2003-05-15 07:26:00 51°13.75 2°55.7 335.4 5.1 331 9
2003-05-15 07:26:06 51°13.75 2°55.69 335.6 5.3 331 9.1
2003-05-15 07:26:10 51°13.76 2°55.69 335.7 5.5 331 9.1
2003-05-15 07:26:16 51°13.77 2°55.68 335.3 5.6 330 9.2
2003-05-15 07:26:20 51°13.77 2°55.67 335.3 5.8 331 9.2
2003-05-15 07:26:26 51°13.78 2°55.67 335.3 5.8 332 9.3
2003-05-15 07:26:30 51°13.79 2°55.66 335.3 5.9 332 9.1
2003-05-15 07:26:36 51°13.8 2°55.65 335.3 6.1 332 9.4
2003-05-15 07:26:40 51°13.8 2°55.65 335.6 6.1 333 9.3
2003-05-15 07:26:46 51°13.81 2°55.64 336 6.2 333 9.3
2003-05-15 07:26:50 51°13.82 2°55.64 336.8 6.3 333 9.4
2003-05-15 07:26:56 51°13.83 2°55.63 337.5 6.4 333 9.2
2003-05-15 07:27:00 51°13.83 2°55.62 338.2 6.4 335 9.1
2003-05-15 07:27:06 51°13.84 2°55.62 339 6.5 335 9.3
2003-05-15 07:27:10 51°13.85 2°55.61 339.6 6.6 335 9.2
2003-05-15 07:27:16 51°13.86 2°55.6 340.4 6.6 336 9
2003-05-15 07:27:20 51°13.87 2°55.6 340.7 6.7 336 9.3
2003-05-15 07:27:26 51°13.87 2°55.59 341.4 6.8 337 9.5
2003-05-15 07:27:30 51°13.88 2°55.59 341.8 6.9 338 9.7
2003-05-15 07:27:36 51°13.89 2°55.58 342.5 7 338 9.9
2003-05-15 07:27:40 51°13.9 2°55.58 342.7 7.2 339 10.2
2003-05-15 07:27:46 51°13.91 2°55.57 342.3 7.5 338 10.2
2003-05-15 07:27:50 51°13.92 2°55.56 342.3 7.7 338 10.1
2003-05-15 07:27:56 51°13.93 2°55.56 342.5 7.8 338 10.2
2003-05-15 07:28:00 51°13.94 2°55.55 342.2 8 338 10.2
2003-05-15 07:28:06 51°13.95 2°55.54 342.3 8.1 338 10.1
2003-05-15 07:28:10 51°13.96 2°55.54 342.5 8.3 338 10.1
2003-05-15 07:28:16 51°13.97 2°55.53 342.5 8.5 338 10
2003-05-15 07:28:20 51°13.98 2°55.52 341.8 8.6 338 10.1
2003-05-15 07:28:26 51°14 2°55.51 341.7 8.7 338 10.1
2003-05-15 07:28:32 51°14.01 2°55.5 342.2 8.8 338 10.1
2003-05-15 07:28:36 51°14.02 2°55.5 342.2 8.9 336 10.1
2003-05-15 07:28:40 51°14.03 2°55.49 340.7 8.9 335 10.1
2003-05-15 07:28:46 51°14.04 2°55.48 339 9 333 10
2003-05-15 07:28:50 51°14.05 2°55.48 338.2 9.1 334 10.1
2003-05-15 07:28:56 51°14.06 2°55.46 337.7 9.1 332 9.7
2003-05-15 07:29:00 51°14.07 2°55.46 337.7 9.1 334 10
2003-05-15 07:29:06 51°14.09 2°55.45 337.1 9.2 331 10.2
2003-05-15 07:29:10 51°14.1 2°55.44 336 9.2 332 10
2003-05-15 07:29:16 51°14.11 2°55.43 335.3 9.2 330 10
2003-05-15 07:29:20 51°14.12 2°55.42 334.7 9.2 331 10.1
2003-05-15 07:29:26 51°14.13 2°55.41 334.1 9.3 329 10.1
2003-05-15 07:29:30 51°14.14 2°55.4 333.1 9.2 329 10.7
2003-05-15 07:29:36 51°14.15 2°55.39 332.4 9.2 328 10.6
2003-05-15 07:29:40 51°14.16 2°55.38 331.5 9.2 327 10.2
2003-05-15 07:29:46 51°14.17 2°55.36 330.6 9.1 326 10.2
2003-05-15 07:29:50 51°14.18 2°55.35 329.6 9.1 324 10.3
2003-05-15 07:29:56 51°14.19 2°55.34 328.9 9.1 325 10.4
2003-05-15 07:30:00 51°14.2 2°55.33 328 9.1 323 10.1
2003-05-15 07:30:06 51°14.21 2°55.31 326.6 9 322 10.3
2003-05-15 07:30:10 51°14.22 2°55.3 324.9 9.1 319 10.6
2003-05-15 07:30:16 51°14.23 2°55.29 324.3 9.2 320 10.8
2003-05-15 07:30:20 51°14.24 2°55.28 323.8 9.1 319 10.6
2003-05-15 07:30:26 51°14.25 2°55.26 322.9 9.1 318 10.3
2003-05-15 07:30:30 51°14.26 2°55.25 321.7 9.1 315 10.3
2003-05-15 07:30:36 51°14.27 2°55.23 319.6 9.1 315 10.5
2003-05-15 07:30:40 51°14.28 2°55.22 317.1 9.2 311 10.3
2003-05-15 07:30:46 51°14.29 2°55.2 315.6 9.2 311 10.3
2003-05-15 07:30:50 51°14.29 2°55.19 314.2 9.3 309 10
2003-05-15 07:30:56 51°14.3 2°55.17 313.4 9.3 310 10
2003-05-15 07:31:00 51°14.31 2°55.16 313.3 9.3 309 10.3
2003-05-15 07:31:06 51°14.32 2°55.14 313.5 9.3 310 10.3
2003-05-15 07:31:10 51°14.33 2°55.13 313.7 9.4 309 10.1
2003-05-15 07:31:16 51°14.34 2°55.11 313.4 9.6 308 9.3
2003-05-15 07:31:20 51°14.34 2°55.1 312.8 9.7 308 9.2
2003-05-15 07:31:26 51°14.35 2°55.07 311.5 9.5 306 9.8
2003-05-15 07:31:32 51°14.36 2°55.05 309.7 9.7 303 9.8
2003-05-15 07:31:36 51°14.37 2°55.04 308.4 9.8 303 9.4
2003-05-15 07:31:40 51°14.37 2°55.02 306.6 10 301 9.4
2003-05-15 07:31:46 51°14.38 2°55 305.6 10.1 300 9.5
2003-05-15 07:31:50 51°14.39 2°54.98 305 10.5 298 9.6
2003-05-15 07:31:56 51°14.39 2°54.96 303.5 10.6 296 9.6
2003-05-15 07:32:00 51°14.4 2°54.94 302.6 10.5 296 9.6
2003-05-15 07:32:06 51°14.41 2°54.92 302.5 10.7 296 9.8
2003-05-15 07:32:10 51°14.41 2°54.9 303.3 10.9 297 10
2003-05-15 07:32:16 51°14.42 2°54.87 304.6 11.6 298 9.9
2003-05-15 07:32:20 51°14.43 2°54.86 305.3 11.5 298 9.5
2003-05-15 07:32:26 51°14.44 2°54.83 305.5 11.9 298 9.8
2003-05-15 07:32:30 51°14.44 2°54.81 305.5 11.9 298 9.7
2003-05-15 07:32:36 51°14.45 2°54.78 305.3 12.2 297 9.8
2003-05-15 07:32:40 51°14.46 2°54.76 304.6 12.5 296 9.5
2003-05-15 07:32:46 51°14.47 2°54.73 304.1 12 295 10
2003-05-15 07:32:50 51°14.47 2°54.71 303.5 12.6 295 10
2003-05-15 07:32:56 51°14.48 2°54.68 303.5 12.5 295 9.9
2003-05-15 07:33:00 51°14.49 2°54.66 303.9 12.5 296 10
2003-05-15 07:33:06 51°14.5 2°54.63 304.2 12.4 295 10
2003-05-15 07:33:12 51°14.51 2°54.6 304.5 13.1 296 9.9
2003-05-15 07:33:16 51°14.51 2°54.58 304.5 13 296 9.7
2003-05-15 07:33:20 51°14.52 2°54.56 304.8 12.9 297 9.7
2003-05-15 07:33:26 51°14.53 2°54.53 305.1 12.7 297 10.1
2003-05-15 07:33:30 51°14.54 2°54.51 305.2 12.8 297 9.8
2003-05-15 07:33:36 51°14.55 2°54.48 306.2 12.8 299 9.5
2003-05-15 07:33:40 51°14.55 2°54.46 307.4 12.9 300 9.8
2003-05-15 07:33:46 51°14.56 2°54.43 308.5 12.6 301 9.9
2003-05-15 07:33:50 51°14.57 2°54.42 309.4 12.6 301 9.7
2003-05-15 07:33:56 51°14.58 2°54.39 310.4 12.7 302 9.6
2003-05-15 07:34:00 51°14.59 2°54.37 310.8 12.7 302 9.8
2003-05-15 07:34:04 51°14.6 2°54.35 310.9 12.4 302 10
2003-05-15 07:34:10 51°14.61 2°54.32 310.8 13 302 10.1
2003-05-15 07:34:16 51°14.62 2°54.29 310.6 13 302 9.8
2003-05-15 07:34:20 51°14.63 2°54.27 310.6 12.9 302 9.8
2003-05-15 07:34:26 51°14.64 2°54.24 310.6 12.5 302 9.8
2003-05-15 07:34:30 51°14.64 2°54.23 310.5 12.6 302 9.9
2003-05-15 07:34:36 51°14.66 2°54.2 310.4 12.7 302 9.9
2003-05-15 07:34:40 51°14.66 2°54.18 310.2 12.6 301 9.7
2003-05-15 07:34:46 51°14.67 2°54.15 309.9 12.3 301 9.8
2003-05-15 07:34:50 51°14.68 2°54.13 309.5 12.9 301 9.8
2003-05-15 07:34:56 51°14.69 2°54.1 309.5 12.6 301 9.5
2003-05-15 07:35:00 51°14.7 2°54.08 309.6 12.5 301 9.3
2003-05-15 07:35:06 51°14.71 2°54.06 309.8 12.3 301 9.5
2003-05-15 07:35:10 51°14.72 2°54.04 309.9 12.5 302 9.5
2003-05-15 07:35:16 51°14.73 2°54.01 310.2 12.3 302 9.3
2003-05-15 07:35:20 51°14.73 2°53.99 310.1 12.2 301 9.3
2003-05-15 07:35:26 51°14.75 2°53.96 309.8 12.5 301 9.2
2003-05-15 07:35:32 51°14.76 2°53.93 309.6 12.3 301 9.2
2003-05-15 07:35:36 51°14.76 2°53.92 309.5 12.4 301 9.1
2003-05-15 07:35:40 51°14.77 2°53.9 309.6 12.3 301 9.2
2003-05-15 07:35:46 51°14.78 2°53.87 309.9 12.5 301 8.9
2003-05-15 07:35:50 51°14.79 2°53.85 310.2 12.3 303 8.9
2003-05-15 07:35:56 51°14.8 2°53.82 310.6 12.6 302 8.9
2003-05-15 07:36:00 51°14.81 2°53.8 310.6 12.5 302 8.8
2003-05-15 07:36:06 51°14.82 2°53.78 310.6 12.3 301 8.9
2003-05-15 07:36:12 51°14.83 2°53.75 310.3 12.7 301 8.9
2003-05-15 07:36:16 51°14.83 2°53.73 310.2 12.4 302 8.9
2003-05-15 07:36:20 51°14.84 2°53.71 310.2 12.2 302 9
2003-05-15 07:36:26 51°14.85 2°53.68 309.9 12.7 301 8.8
2003-05-15 07:36:30 51°14.86 2°53.66 309.6 12.5 301 8.9
2003-05-15 07:36:36 51°14.87 2°53.63 309.2 12.7 300 8.9
2003-05-15 07:36:40 51°14.88 2°53.62 309.1 12.9 300 8.9
2003-05-15 07:36:46 51°14.89 2°53.59 309.5 12.2 301 9.1
2003-05-15 07:36:50 51°14.89 2°53.57 309.8 12.3 301 9.1
2003-05-15 07:36:56 51°14.91 2°53.54 310 12.4 301 9.1
2003-05-15 07:37:00 51°14.91 2°53.52 310.6 12.4 301 9.1
2003-05-15 07:37:06 51°14.92 2°53.49 310.4 12.4 301 9.2
2003-05-15 07:37:12 51°14.93 2°53.46 309.3 12.7 300 9.2
2003-05-15 07:37:16 51°14.94 2°53.44 307.9 12.7 299 9.2
2003-05-15 07:37:20 51°14.95 2°53.42 306.7 12.4 298 9.2
2003-05-15 07:37:26 51°14.96 2°53.39 305.2 13 296 9.1
2003-05-15 07:37:30 51°14.96 2°53.37 304.3 12.7 295 9.3
2003-05-15 07:37:36 51°14.97 2°53.34 303.8 12.8 295 9.2
2003-05-15 07:37:40 51°14.98 2°53.32 303.8 12.6 295 9.3
2003-05-15 07:37:46 51°14.99 2°53.29 304.1 13.1 296 9.1
2003-05-15 07:37:50 51°14.99 2°53.27 304.2 12.7 296 9.1
2003-05-15 07:37:56 51°15 2°53.24 304.6 12.8 296 9.1
2003-05-15 07:38:00 51°15.01 2°53.22 304.6 12.7 295 9.2
2003-05-15 07:38:06 51°15.02 2°53.19 304.5 12.8 294 9.3
2003-05-15 07:38:10 51°15.02 2°53.17 303.9 12.8 294 9.1
2003-05-15 07:38:16 51°15.03 2°53.14 304.1 12.6 296 9.4
2003-05-15 07:38:20 51°15.04 2°53.12 304.2 12.8 296 9.3
2003-05-15 07:38:26 51°15.05 2°53.09 304.7 12.9 296 9.3
2003-05-15 07:38:30 51°15.05 2°53.07 305.1 12.5 295 9.4
2003-05-15 07:38:36 51°15.06 2°53.04 304.9 12.7 296 9.5
2003-05-15 07:38:40 51°15.07 2°53.02 304.9 13 295 9.5
2003-05-15 07:38:46 51°15.08 2°52.99 304.8 12.5 296 9.6
2003-05-15 07:38:50 51°15.08 2°52.97 304.5 13 294 9.7
2003-05-15 07:38:56 51°15.09 2°52.93 304.1 13 295 9.6
2003-05-15 07:39:00 51°15.1 2°52.91 304.4 13 294 9.8
2003-05-15 07:39:06 51°15.11 2°52.88 304.8 13 295 9.9
2003-05-15 07:39:10 51°15.11 2°52.86 305.1 12.8 295 9.9
2003-05-15 07:39:16 51°15.12 2°52.83 305.3 13.1 295 9.9
2003-05-15 07:39:20 51°15.13 2°52.81 305.2 13 295 10
2003-05-15 07:39:26 51°15.14 2°52.78 305.2 13 295 10
2003-05-15 07:39:30 51°15.14 2°52.76 304.8 13.1 293 10.2
2003-05-15 07:39:36 51°15.15 2°52.73 304.8 13 294 10.1
2003-05-15 07:39:40 51°15.16 2°52.71 304.8 13 295 10.2
2003-05-15 07:39:46 51°15.17 2°52.67 304.6 13.2 294 10.1
2003-05-15 07:39:50 51°15.17 2°52.65 304.8 13.1 295 10.2
2003-05-15 07:39:56 51°15.18 2°52.62 305.2 13 294 10.4
2003-05-15 07:40:00 51°15.19 2°52.6 305.3 12.8 294 10.5
2003-05-15 07:40:06 51°15.2 2°52.57 305.5 13.3 295 10.4
2003-05-15 07:40:10 51°15.2 2°52.55 305.5 13.3 294 10.6
2003-05-15 07:40:16 51°15.21 2°52.52 305.6 13.2 295 10.6
2003-05-15 07:40:20 51°15.22 2°52.5 305.8 12.9 295 10.7
2003-05-15 07:40:26 51°15.23 2°52.46 305.5 13 295 10.7
2003-05-15 07:40:30 51°15.23 2°52.44 305.3 13 294 10.7
2003-05-15 07:40:36 51°15.24 2°52.41 305.1 13.1 294 10.8
2003-05-15 07:40:40 51°15.25 2°52.39 305.1 13.4 294 10.6
2003-05-15 07:40:46 51°15.26 2°52.36 304.8 13 292 10.8
2003-05-15 07:40:50 51°15.26 2°52.34 304 13.3 292 10.9
2003-05-15 07:40:56 51°15.27 2°52.3 304.2 12.9 293 11
2003-05-15 07:41:00 51°15.28 2°52.28 304.8 12.9 293 11
2003-05-15 07:41:06 51°15.29 2°52.25 305.8 13.3 295 11
2003-05-15 07:41:12 51°15.29 2°52.22 306.1 12.9 294 11
2003-05-15 07:41:16 51°15.3 2°52.2 306.4 13 296 11.1
2003-05-15 07:41:20 51°15.31 2°52.18 305.1 13.3 294 11.2
2003-05-15 07:41:26 51°15.31 2°52.15 302.4 13 290 11.2
2003-05-15 07:41:30 51°15.32 2°52.12 300.4 13.1 288 11.2
2003-05-15 07:41:36 51°15.32 2°52.09 295.8 13.3 285 11.2
2003-05-15 07:41:40 51°15.33 2°52.07 291.4 13.2 280 11.4
2003-05-15 07:41:46 51°15.33 2°52.03 287.4 13.3 277 11.4
2003-05-15 07:41:50 51°15.33 2°52.01 284.5 13.2 273 11.4
2003-05-15 07:41:56 51°15.33 2°51.97 281.9 13.2 274 11.5
2003-05-15 07:42:00 51°15.33 2°51.95 280.1 13.3 272 11.5
2003-05-15 07:42:06 51°15.34 2°51.92 279.5 13.3 270 11.6
2003-05-15 07:42:10 51°15.34 2°51.89 278.7 13.8 270 11.6
2003-05-15 07:42:16 51°15.34 2°51.86 278.2 13.6 271 11.5
2003-05-15 07:42:20 51°15.34 2°51.83 278.3 13.5 271 11.8
2003-05-15 07:42:26 51°15.34 2°51.8 278.7 13.5 271 11.7
2003-05-15 07:42:30 51°15.34 2°51.77 278.9 13.4 269 11.7
2003-05-15 07:42:36 51°15.34 2°51.74 277.7 13.5 269 11.7
2003-05-15 07:42:40 51°15.33 2°51.71 274.3 13.7 264 11.6
2003-05-15 07:42:46 51°15.33 2°51.68 270 13.4 262 11.7
2003-05-15 07:42:50 51°15.33 2°51.65 266.2 13.3 258 11.7
2003-05-15 07:42:56 51°15.32 2°51.62 263 13.4 254 11.8
2003-05-15 07:43:00 51°15.32 2°51.6 261.1 13.3 256 11.8
2003-05-15 07:43:06 51°15.31 2°51.56 257.8 13.7 248 11.8
2003-05-15 07:43:12 51°15.3 2°51.53 254.7 13.5 250 11.8
2003-05-15 07:43:16 51°15.3 2°51.51 252 13.5 242 11.8
2003-05-15 07:43:20 51°15.29 2°51.49 249.8 13.5 248 11.9
2003-05-15 07:43:26 51°15.28 2°51.45 246.7 13.6 239 11.9
2003-05-15 07:43:30 51°15.27 2°51.43 246 13.4 241 11.7
2003-05-15 07:43:36 51°15.26 2°51.4 243.1 13.7 235 11.8
2003-05-15 07:43:40 51°15.25 2°51.38 241.6 13.6 241 11.7
2003-05-15 07:43:46 51°15.24 2°51.35 239.3 13.6 233 11.7
2003-05-15 07:43:50 51°15.23 2°51.33 238.7 13.7 238 11.7
2003-05-15 07:43:56 51°15.22 2°51.3 237.3 13.6 235 11.8
2003-05-15 07:44:00 51°15.21 2°51.28 237.6 13.6 234 11.8
2003-05-15 07:44:06 51°15.2 2°51.25 237.3 13.6 236 11.8
2003-05-15 07:44:10 51°15.19 2°51.23 236.8 13.8 231 11.8
2003-05-15 07:44:16 51°15.17 2°51.21 236.6 13.8 236 11.7
2003-05-15 07:44:20 51°15.17 2°51.19 237 13.7 233 11.8
2003-05-15 07:44:26 51°15.15 2°51.16 236.5 13.7 233 11.8
2003-05-15 07:44:30 51°15.14 2°51.14 236.4 13.9 232 11.8
2003-05-15 07:44:36 51°15.13 2°51.11 237.2 13.8 237 11.7
2003-05-15 07:44:40 51°15.12 2°51.09 237.2 13.8 233 11.8
2003-05-15 07:44:46 51°15.11 2°51.06 237.9 13.9 236 11.8
2003-05-15 07:44:50 51°15.1 2°51.04 238.3 13.7 234 11.8
2003-05-15 07:44:56 51°15.09 2°51.01 237.6 13.8 235 11.9
2003-05-15 07:45:00 51°15.08 2°50.99 238 13.9 236 11.9
2003-05-15 07:45:06 51°15.06 2°50.96 238.4 13.8 236 11.8
2003-05-15 07:45:12 51°15.05 2°50.93 238.3 13.9 235 11.7
2003-05-15 07:45:16 51°15.04 2°50.91 238 13.9 235 11.7
2003-05-15 07:45:20 51°15.03 2°50.89 237.8 13.9 236 11.8
2003-05-15 07:45:26 51°15.02 2°50.86 237.3 13.9 233 11.7
2003-05-15 07:45:32 51°15 2°50.83 236.8 13.9 232 11.7
2003-05-15 07:45:36 51°14.99 2°50.81 234.8 13.9 231 11.7
2003-05-15 07:45:40 51°14.99 2°50.79 234.5 13.8 231 11.7
2003-05-15 07:45:46 51°14.97 2°50.76 232.4 14.1 229 11.6
2003-05-15 07:45:52 51°14.96 2°50.73 233.7 13.9 232 11.7
2003-05-15 07:45:56 51°14.95 2°50.71 232.5 13.9 228 11.7
2003-05-15 07:46:02 51°14.93 2°50.68 232.6 14 231 11.5
2003-05-15 07:46:06 51°14.92 2°50.67 232.8 14 230 11.5
2003-05-15 07:46:12 51°14.91 2°50.64 232.8 13.9 231 11.6
2003-05-15 07:46:16 51°14.9 2°50.62 232.4 13.9 230 11.6
2003-05-15 07:46:20 51°14.89 2°50.6 232.9 14 229 11.5
2003-05-15 07:46:26 51°14.87 2°50.57 232.9 13.9 232 11.6
2003-05-15 07:46:32 51°14.86 2°50.54 233.4 13.8 230 11.6
2003-05-15 07:46:36 51°14.85 2°50.52 233 13.8 231 11.6
2003-05-15 07:46:42 51°14.83 2°50.49 232.9 13.8 228 11.5
2003-05-15 07:46:46 51°14.82 2°50.48 231.8 13.8 231 11.6
2003-05-15 07:46:52 51°14.81 2°50.45 231.8 13.9 228 11.5
2003-05-15 07:46:56 51°14.8 2°50.43 232 13.9 231 11.5
2003-05-15 07:47:00 51°14.79 2°50.41 232.4 13.7 229 11.5
2003-05-15 07:47:06 51°14.77 2°50.38 231.3 14 228 11.4
2003-05-15 07:47:12 51°14.76 2°50.35 233.1 13.8 230 11.4
2003-05-15 07:47:16 51°14.75 2°50.34 232 13.7 228 11.4
2003-05-15 07:47:20 51°14.74 2°50.32 231.7 14 229 11.4
2003-05-15 07:47:26 51°14.73 2°50.29 232.7 13.8 231 11.5
2003-05-15 07:47:32 51°14.71 2°50.26 232.4 13.6 227 11.4
2003-05-15 07:47:36 51°14.7 2°50.24 231.5 14 229 11.4
2003-05-15 07:47:40 51°14.69 2°50.22 233.4 13.7 231 11.3
2003-05-15 07:47:46 51°14.68 2°50.2 232.2 13.7 228 11.4
2003-05-15 07:47:52 51°14.66 2°50.17 232.2 13.8 231 11.4
2003-05-15 07:47:56 51°14.65 2°50.15 232.8 13.9 229 11.3
2003-05-15 07:48:00 51°14.64 2°50.13 232.8 13.7 231 11.3
2003-05-15 07:48:06 51°14.63 2°50.1 232.4 13.8 229 11.3
2003-05-15 07:48:12 51°14.61 2°50.07 233 13.8 234 11.3
2003-05-15 07:48:16 51°14.6 2°50.06 233.1 13.8 229 11.2
2003-05-15 07:48:22 51°14.59 2°50.03 233.1 13.8 233 11.2
2003-05-15 07:48:26 51°14.58 2°50.01 233.4 13.7 229 11.2
2003-05-15 07:48:32 51°14.56 2°49.98 232.9 13.7 233 11.3
2003-05-15 07:48:36 51°14.56 2°49.96 234 13.6 231 11.3
2003-05-15 07:48:40 51°14.55 2°49.94 233.3 13.9 233 11.2
2003-05-15 07:48:46 51°14.53 2°49.91 233.9 13.7 232 11.3
2003-05-15 07:48:52 51°14.52 2°49.89 233.5 13.7 231 11.2
2003-05-15 07:48:56 51°14.51 2°49.87 233.3 13.8 231 11.2
2003-05-15 07:49:00 51°14.5 2°49.85 233.5 13.8 232 11.1
2003-05-15 07:49:06 51°14.48 2°49.82 233.1 13.5 229 11.2
2003-05-15 07:49:12 51°14.47 2°49.79 232.9 12.9 231 11.1
2003-05-15 07:49:16 51°14.46 2°49.78 233.1 12.4 230 11.2
2003-05-15 07:49:22 51°14.45 2°49.75 233.4 11.6 230 11.1
2003-05-15 07:49:26 51°14.44 2°49.74 233.7 11.3 232 11.2
2003-05-15 07:49:32 51°14.43 2°49.71 233.4 10.7 231 11.2
2003-05-15 07:49:36 51°14.42 2°49.7 233.8 10.3 232 11.3
2003-05-15 07:49:40 51°14.41 2°49.68 234 9.9 229 11.2
2003-05-15 07:49:46 51°14.4 2°49.66 234.1 9.6 234 11.3
2003-05-15 07:49:52 51°14.39 2°49.65 234.2 9.2 230 11.3
2003-05-15 07:49:56 51°14.39 2°49.63 234.7 8.9 234 11.3
2003-05-15 07:50:00 51°14.38 2°49.62 234.8 8.5 229 11.3
2003-05-15 07:50:06 51°14.37 2°49.6 235.8 8.4 236 11.2
2003-05-15 07:50:12 51°14.37 2°49.59 235.5 7.8 236 11.3
2003-05-15 07:50:16 51°14.36 2°49.58 236.5 7.5 233 11.3
2003-05-15 07:50:20 51°14.36 2°49.56 237.6 7.3 236 11.3
2003-05-15 07:50:26 51°14.35 2°49.55 238.6 7.1 234 11.3
2003-05-15 07:50:32 51°14.34 2°49.53 240.2 6.9 241 11.3
2003-05-15 07:50:36 51°14.34 2°49.52 241.6 6.6 235 11.3
2003-05-15 07:50:40 51°14.33 2°49.51 243.7 6.5 240 11.2
2003-05-15 07:50:46 51°14.33 2°49.5 246.2 6.4 243 11.1
2003-05-15 07:50:52 51°14.32 2°49.48 247.9 6.1 242 11.2
2003-05-15 07:50:56 51°14.32 2°49.48 250.2 6 244 11.2
2003-05-15 07:51:00 51°14.32 2°49.47 252.3 5.7 245 11.2
2003-05-15 07:51:06 51°14.32 2°49.45 254.4 5.6 248 11.2
2003-05-15 07:51:12 51°14.31 2°49.44 255.6 5.5 254 11.2
2003-05-15 07:51:16 51°14.31 2°49.43 258.1 5.2 244 11.3
2003-05-15 07:51:20 51°14.31 2°49.42 259.7 5.1 249 11.3
2003-05-15 07:51:26 51°14.31 2°49.41 261.6 5.1 249 11.3
2003-05-15 07:51:32 51°14.3 2°49.4 263 4.6 254 11.3
2003-05-15 07:51:36 51°14.3 2°49.39 264.7 4.5 248 11.3
2003-05-15 07:51:42 51°14.3 2°49.38 266.4 4.2 255 11.2
2003-05-15 07:51:46 51°14.3 2°49.37 268.5 4.2 253 11.2
2003-05-15 07:51:52 51°14.3 2°49.36 270.7 3.7 253 11.3
2003-05-15 07:51:56 51°14.3 2°49.36 273 3.3 256 11.2
2003-05-15 07:52:00 51°14.29 2°49.35 277 2.9 254 11.3
2003-05-15 07:52:06 51°14.29 2°49.34 280.3 2.6 256 11.2
2003-05-15 07:52:12 51°14.29 2°49.34 283.5 2.5 262 11.2
2003-05-15 07:52:16 51°14.29 2°49.33 286.1 2.6 255 11.3
2003-05-15 07:52:20 51°14.29 2°49.33 288.2 2.7 259 11.3
2003-05-15 07:52:26 51°14.29 2°49.32 289.6 2.6 260 11.3
2003-05-15 07:52:32 51°14.29 2°49.31 290.7 2.5 264 11.3
2003-05-15 07:52:36 51°14.29 2°49.31 291.4 2.7 258 11.3
2003-05-15 07:52:40 51°14.29 2°49.31 291.8 2.6 255 11.3
2003-05-15 07:52:46 51°14.29 2°49.3 292.1 2.3 264 11.2
2003-05-15 07:52:52 51°14.29 2°49.29 292.5 2.2 269 11.2
2003-05-15 07:52:56 51°14.29 2°49.29 292.8 2.9 258 11.2
2003-05-15 07:53:00 51°14.29 2°49.28 293 2.8 264 11.2
2003-05-15 07:53:06 51°14.29 2°49.28 294.5 2.8 267 11.2
2003-05-15 07:53:12 51°14.29 2°49.27 296.8 2.8 267 11.2
2003-05-15 07:53:16 51°14.29 2°49.26 299 2.8 271 11.2
2003-05-15 07:53:20 51°14.29 2°49.26 301.7 2.7 269 11.3
2003-05-15 07:53:26 51°14.29 2°49.25 305.5 2.8 272 11.3
2003-05-15 07:53:32 51°14.29 2°49.24 308.3 3.1 278 11.3
2003-05-15 07:53:36 51°14.29 2°49.24 313.3 2.7 288 11.3
2003-05-15 07:53:40 51°14.29 2°49.24 317.1 2.9 286 11.3
2003-05-15 07:53:46 51°14.29 2°49.23 322.2 2.8 290 11.3
2003-05-15 07:53:52 51°14.29 2°49.22 325.5 2.7 296 11.3
2003-05-15 07:53:56 51°14.29 2°49.22 330.1 2.8 299 11.2
2003-05-15 07:54:00 51°14.29 2°49.21 334.5 2.8 302 11.2
2003-05-15 07:54:06 51°14.3 2°49.21 339.6 2.7 306 11.3
2003-05-15 07:54:12 51°14.3 2°49.2 344 2.5 311 11.3
2003-05-15 07:54:16 51°14.3 2°49.2 347.6 2.6 313 11.3
2003-05-15 07:54:20 51°14.3 2°49.2 352 2.5 320 11.4
2003-05-15 07:54:26 51°14.31 2°49.19 356.5 2.1 321 11.3
2003-05-15 07:54:32 51°14.31 2°49.19 1.3 2.3 329 11.1
2003-05-15 07:54:36 51°14.31 2°49.19 6.7 2.4 335 11.2
2003-05-15 07:54:42 51°14.31 2°49.18 10.3 2.1 342 11.3
2003-05-15 07:54:46 51°14.32 2°49.18 16.1 1.9 343 11.3
2003-05-15 07:54:52 51°14.32 2°49.18 19.7 2 352 11.4
2003-05-15 07:54:56 51°14.32 2°49.18 23.6 1.8 358 11.4
2003-05-15 07:55:00 51°14.32 2°49.18 26.4 2.1 7 11.4
2003-05-15 07:55:06 51°14.33 2°49.18 29 2 359 11.3
2003-05-15 07:55:12 51°14.33 2°49.18 30.4 2.2 7 11.4
2003-05-15 07:55:16 51°14.33 2°49.18 32.3 2.2 15 11.4
2003-05-15 07:55:20 51°14.34 2°49.18 34.2 2 14 11.4
2003-05-15 07:55:26 51°14.34 2°49.19 36.2 2.1 14 11.5
2003-05-15 07:55:32 51°14.34 2°49.19 38.3 2.4 26 11.5
2003-05-15 07:55:36 51°14.35 2°49.19 40.3 2.4 29 11.4
2003-05-15 07:55:40 51°14.35 2°49.19 42.3 2.5 30 11.3
2003-05-15 07:55:46 51°14.35 2°49.2 44.2 2.6 26 11.4
2003-05-15 07:55:52 51°14.36 2°49.2 46.2 2.7 35 11.4
2003-05-15 07:55:56 51°14.36 2°49.2 48.2 2.7 41 11.5
2003-05-15 07:56:00 51°14.36 2°49.21 50.1 2.8 43 11.4
2003-05-15 07:56:06 51°14.36 2°49.21 51.7 2.8 40 11.4
2003-05-15 07:56:12 51°14.37 2°49.22 53.1 2.6 44 11.4
2003-05-15 07:56:16 51°14.37 2°49.22 54.5 2.8 43 11.4
2003-05-15 07:56:22 51°14.37 2°49.23 56.1 2.7 43 11.4
2003-05-15 07:56:26 51°14.37 2°49.23 57.3 3 49 11.4
2003-05-15 07:56:32 51°14.38 2°49.24 58.8 3 50 11.4
2003-05-15 07:56:36 51°14.38 2°49.24 59.6 3.2 56 11.4
2003-05-15 07:56:40 51°14.38 2°49.25 60.5 3.1 55 11.4
2003-05-15 07:56:46 51°14.38 2°49.25 61.4 3.2 58 11.5
2003-05-15 07:56:52 51°14.39 2°49.26 61.6 3.3 55 11.5
2003-05-15 07:56:56 51°14.39 2°49.26 62.2 3.2 59 11.6
2003-05-15 07:57:00 51°14.39 2°49.27 62.3 3.5 63 11.5
2003-05-15 07:57:06 51°14.39 2°49.28 61.9 3.3 57 11.5
2003-05-15 07:57:12 51°14.4 2°49.28 61.7 3.1 57 11.5
2003-05-15 07:57:16 51°14.4 2°49.29 61.4 3.3 52 11.4
2003-05-15 07:57:20 51°14.4 2°49.29 61.6 3.2 57 11.5
2003-05-15 07:57:26 51°14.4 2°49.3 61.6 3.2 62 11.6
2003-05-15 07:57:32 51°14.41 2°49.31 61.8 3.4 63 11.6
2003-05-15 07:57:36 51°14.41 2°49.31 61.8 3.1 55 11.6
2003-05-15 07:57:40 51°14.41 2°49.32 61.8 3.3 58 11.5
2003-05-15 07:57:46 51°14.41 2°49.32 62.1 3.1 63 11.6
2003-05-15 07:57:52 51°14.41 2°49.33 62.4 3.1 67 11.6
2003-05-15 07:57:56 51°14.42 2°49.34 63.1 2.9 52 11.6
2003-05-15 07:58:00 51°14.42 2°49.34 64.1 3 62 11.5
2003-05-15 07:58:06 51°14.42 2°49.35 65.1 3 65 11.5
2003-05-15 07:58:12 51°14.42 2°49.35 66.1 2.9 72 11.6
2003-05-15 07:58:16 51°14.42 2°49.36 67.6 2.7 65 11.6
2003-05-15 07:58:20 51°14.42 2°49.36 69.1 2.8 69 11.6
2003-05-15 07:58:26 51°14.43 2°49.37 70.4 2.6 70 11.6
2003-05-15 07:58:32 51°14.43 2°49.38 71.6 2.5 71 11.5
2003-05-15 07:58:36 51°14.43 2°49.38 73.2 2.4 76 11.6
2003-05-15 07:58:40 51°14.43 2°49.39 74.4 2.6 81 11.5
2003-05-15 07:58:46 51°14.43 2°49.39 75.2 2.5 72 11.5
2003-05-15 07:58:52 51°14.43 2°49.4 76.4 2.4 79 11.6
2003-05-15 07:58:56 51°14.43 2°49.4 76.9 2.3 82 11.5
2003-05-15 07:59:00 51°14.43 2°49.41 77.3 2.4 75 11.6
2003-05-15 07:59:06 51°14.43 2°49.41 77.7 2.4 89 11.5
2003-05-15 07:59:12 51°14.43 2°49.42 77.5 2.2 84 11.5
2003-05-15 07:59:16 51°14.43 2°49.42 77.3 2.2 87 11.5
2003-05-15 07:59:22 51°14.43 2°49.43 77 2.3 84 11.5
2003-05-15 07:59:26 51°14.43 2°49.43 75.5 2.1 77 11.6
2003-05-15 07:59:32 51°14.43 2°49.44 74.2 2 86 11.6
2003-05-15 07:59:36 51°14.43 2°49.44 72.8 1.9 72 11.5
2003-05-15 07:59:42 51°14.43 2°49.45 71.1 2 77 11.5
2003-05-15 07:59:46 51°14.43 2°49.45 69.6 2 69 11.5
2003-05-15 07:59:52 51°14.44 2°49.45 67.6 1.7 55 11.5
2003-05-15 07:59:56 51°14.44 2°49.46 65.9 1.9 76 11.5
2003-05-15 08:00:00 51°14.44 2°49.46 63.9 1.5 65 11.5
2003-05-15 08:00:06 51°14.44 2°49.46 62.1 1.5 52 11.5
2003-05-15 08:00:12 51°14.44 2°49.47 60.7 1.8 60 11.5
2003-05-15 08:00:16 51°14.44 2°49.47 59 1.6 60 11.5
2003-05-15 08:00:22 51°14.44 2°49.47 57.2 1.9 51 11.4
2003-05-15 08:00:26 51°14.44 2°49.48 55.2 1.8 51 11.5
2003-05-15 08:00:32 51°14.45 2°49.48 53.5 1.8 46 11.6
2003-05-15 08:00:36 51°14.45 2°49.48 52.1 1.8 44 11.6
2003-05-15 08:00:40 51°14.45 2°49.48 51.3 1.8 47 11.6
2003-05-15 08:00:46 51°14.45 2°49.49 50.8 1.9 42 11.6
2003-05-15 08:00:52 51°14.45 2°49.49 50.7 2 45 11.5
2003-05-15 08:00:56 51°14.45 2°49.49 51 2.2 40 11.6
2003-05-15 08:01:00 51°14.46 2°49.5 51.6 2.1 41 11.7
2003-05-15 08:01:06 51°14.46 2°49.5 52.3 2.2 44 11.7
2003-05-15 08:01:12 51°14.46 2°49.51 53.1 2.2 38 11.7
2003-05-15 08:01:16 51°14.46 2°49.51 53.9 2.3 49 11.7
2003-05-15 08:01:20 51°14.46 2°49.51 54.6 2.4 45 11.6
2003-05-15 08:01:26 51°14.47 2°49.52 55.3 2.5 54 11.7
2003-05-15 08:01:32 51°14.47 2°49.52 56.1 2.6 53 11.7
2003-05-15 08:01:36 51°14.47 2°49.53 56.5 2.7 49 11.6
2003-05-15 08:01:42 51°14.47 2°49.53 56.8 2.5 52 11.6
2003-05-15 08:01:46 51°14.48 2°49.53 57.7 2.6 56 11.7
2003-05-15 08:01:52 51°14.48 2°49.54 58.5 2.7 54 11.6
2003-05-15 08:01:56 51°14.48 2°49.54 59.2 2.5 54 11.7
2003-05-15 08:02:00 51°14.48 2°49.55 60.2 2.8 59 11.7
2003-05-15 08:02:06 51°14.48 2°49.55 61.2 2.5 57 11.8
2003-05-15 08:02:12 51°14.49 2°49.56 62.1 2.7 55 11.7
2003-05-15 08:02:16 51°14.49 2°49.56 62.7 2.6 59 11.7
2003-05-15 08:02:20 51°14.49 2°49.57 63.1 2.6 58 11.7
2003-05-15 08:02:26 51°14.49 2°49.57 63.3 2.6 61 11.7
2003-05-15 08:02:32 51°14.49 2°49.58 63.3 2.6 58 11.7
2003-05-15 08:02:36 51°14.5 2°49.58 63.7 2.7 62 11.6
2003-05-15 08:02:42 51°14.5 2°49.59 63.9 2.4 63 11.7
2003-05-15 08:02:46 51°14.5 2°49.59 64.5 2.6 59 11.6
2003-05-15 08:02:52 51°14.5 2°49.6 64.9 2.7 72 11.7
2003-05-15 08:02:56 51°14.5 2°49.6 65.4 2.7 58 11.6
2003-05-15 08:03:00 51°14.5 2°49.61 65.9 2.5 57 11.7
2003-05-15 08:03:06 51°14.51 2°49.61 66.2 2.8 68 11.7
2003-05-15 08:03:12 51°14.51 2°49.62 66.7 2.6 62 11.7
2003-05-15 08:03:16 51°14.51 2°49.63 66.7 2.5 66 11.7
2003-05-15 08:03:20 51°14.51 2°49.63 67 2.7 62 11.7
2003-05-15 08:03:26 51°14.51 2°49.64 67.5 2.7 69 11.7
2003-05-15 08:03:32 51°14.51 2°49.64 67.6 2.4 65 11.7
2003-05-15 08:03:36 51°14.51 2°49.65 68.4 2.4 73 11.7
2003-05-15 08:03:40 51°14.51 2°49.65 69 2.7 65 11.6
2003-05-15 08:03:46 51°14.52 2°49.66 69.1 2.6 73 11.6
2003-05-15 08:03:52 51°14.52 2°49.66 68.9 2.6 72 11.7
2003-05-15 08:03:56 51°14.52 2°49.67 68.7 2.7 67 11.6
2003-05-15 08:04:02 51°14.52 2°49.68 68.1 2.6 73 11.7
2003-05-15 08:04:06 51°14.52 2°49.68 67.8 2.5 64 11.7
2003-05-15 08:04:12 51°14.52 2°49.69 67.5 2.8 62 11.7
2003-05-15 08:04:16 51°14.53 2°49.69 66.9 2.6 76 11.8
2003-05-15 08:04:20 51°14.53 2°49.69 66.1 2.7 64 11.7
2003-05-15 08:04:26 51°14.53 2°49.7 65.3 2.6 62 11.6
2003-05-15 08:04:32 51°14.53 2°49.71 64.7 2.6 62 11.6
2003-05-15 08:04:36 51°14.53 2°49.71 64.2 2.5 60 11.7
2003-05-15 08:04:40 51°14.53 2°49.71 64 2.5 58 11.7
2003-05-15 08:04:46 51°14.54 2°49.72 63.6 2.5 66 11.7
2003-05-15 08:04:52 51°14.54 2°49.73 63.2 2.5 60 11.8
2003-05-15 08:04:56 51°14.54 2°49.73 63.1 2.4 64 11.8
2003-05-15 08:05:00 51°14.54 2°49.73 63.1 2.7 61 11.8
2003-05-15 08:05:06 51°14.54 2°49.74 62.8 2.4 61 11.8
2003-05-15 08:05:12 51°14.54 2°49.75 62.4 2.6 60 11.8
2003-05-15 08:05:16 51°14.55 2°49.75 62.3 2.6 58 11.8
2003-05-15 08:05:20 51°14.55 2°49.75 62 2.4 55 11.7
2003-05-15 08:05:26 51°14.55 2°49.76 62.4 2.3 63 11.8
2003-05-15 08:05:32 51°14.55 2°49.76 62.8 2.6 63 11.7
2003-05-15 08:05:36 51°14.55 2°49.77 62.9 2.5 62 11.7
2003-05-15 08:05:40 51°14.55 2°49.77 63.4 2.7 67 11.7
2003-05-15 08:05:46 51°14.56 2°49.78 63.9 2.6 64 11.7
2003-05-15 08:05:52 51°14.56 2°49.78 64.9 2.6 67 11.7
2003-05-15 08:05:56 51°14.56 2°49.79 65.5 2.5 52 11.7
2003-05-15 08:06:00 51°14.56 2°49.79 65.7 2.5 59 11.7
2003-05-15 08:06:06 51°14.56 2°49.8 66.2 2.5 68 11.7
2003-05-15 08:06:12 51°14.56 2°49.8 66.6 2.4 65 11.8
2003-05-15 08:06:16 51°14.56 2°49.81 67.1 2.4 64 11.7
2003-05-15 08:06:20 51°14.57 2°49.81 67.2 2.4 74 11.7
2003-05-15 08:06:26 51°14.57 2°49.82 67.2 2.4 52 11.6
2003-05-15 08:06:32 51°14.57 2°49.82 67.3 2.1 59 11.7
2003-05-15 08:06:36 51°14.57 2°49.83 67.1 2 64 11.7
2003-05-15 08:06:40 51°14.57 2°49.83 66.8 2.5 60 11.7
2003-05-15 08:06:46 51°14.57 2°49.84 66.7 2.4 63 11.7
2003-05-15 08:06:52 51°14.57 2°49.84 66.6 2.3 66 11.8
2003-05-15 08:06:56 51°14.58 2°49.85 66.2 2.2 71 11.9
2003-05-15 08:07:00 51°14.58 2°49.85 66.4 2.5 75 11.8
2003-05-15 08:07:06 51°14.58 2°49.86 66.2 2.2 55 11.7
2003-05-15 08:07:12 51°14.58 2°49.86 66 2.5 62 11.7
2003-05-15 08:07:16 51°14.58 2°49.87 65.9 2.4 71 11.8
2003-05-15 08:07:22 51°14.58 2°49.87 65.6 2.5 71 11.8
2003-05-15 08:07:26 51°14.58 2°49.88 65.3 2.3 59 11.8
2003-05-15 08:07:32 51°14.59 2°49.88 65.1 2.6 65 11.9
2003-05-15 08:07:36 51°14.59 2°49.88 65.2 2.5 67 11.8
2003-05-15 08:07:40 51°14.59 2°49.89 64.7 2.4 59 11.7
2003-05-15 08:07:46 51°14.59 2°49.89 64.6 2.5 63 11.8
2003-05-15 08:07:52 51°14.59 2°49.9 64.6 2.4 58 11.8
2003-05-15 08:07:56 51°14.59 2°49.9 64.6 2.3 66 11.9
2003-05-15 08:08:02 51°14.6 2°49.91 64.7 2.4 62 11.8
2003-05-15 08:08:06 51°14.6 2°49.91 64.5 2.5 63 11.8
2003-05-15 08:08:12 51°14.6 2°49.92 64.8 2.3 70 11.9
2003-05-15 08:08:16 51°14.6 2°49.92 64.8 2.1 69 11.9
2003-05-15 08:08:20 51°14.6 2°49.93 65 2.5 68 11.8
2003-05-15 08:08:26 51°14.6 2°49.93 65.3 2.5 64 11.8
2003-05-15 08:08:32 51°14.6 2°49.94 65.7 2.3 61 11.8
2003-05-15 08:08:36 51°14.61 2°49.94 65.9 2.3 66 11.9
2003-05-15 08:08:40 51°14.61 2°49.95 66 2.5 68 11.9
2003-05-15 08:08:46 51°14.61 2°49.95 66 2.6 70 11.8
2003-05-15 08:08:52 51°14.61 2°49.96 65.5 2.3 60 11.7
2003-05-15 08:08:56 51°14.61 2°49.96 65.2 2.4 68 11.8
2003-05-15 08:09:00 51°14.61 2°49.97 65.1 2.4 61 11.9
2003-05-15 08:09:06 51°14.61 2°49.97 64.9 2.5 69 11.8
2003-05-15 08:09:12 51°14.62 2°49.98 64.8 2.5 64 11.8
2003-05-15 08:09:16 51°14.62 2°49.98 64.8 2.4 61 11.8
2003-05-15 08:09:20 51°14.62 2°49.99 64.5 2.4 67 11.9
2003-05-15 08:09:26 51°14.62 2°49.99 64.7 2.4 64 11.8
2003-05-15 08:09:32 51°14.62 2°50 64.7 2.3 56 11.8
2003-05-15 08:09:36 51°14.62 2°50 64.9 2.3 70 11.8
2003-05-15 08:09:40 51°14.62 2°50 65.2 2.4 65 11.7
2003-05-15 08:09:46 51°14.63 2°50.01 65.1 2.5 64 11.8
2003-05-15 08:09:52 51°14.63 2°50.02 65.2 2.5 77 12
2003-05-15 08:09:56 51°14.63 2°50.02 65.3 2.3 61 11.9
2003-05-15 08:10:00 51°14.63 2°50.02 65.3 2.5 67 11.9
2003-05-15 08:10:06 51°14.63 2°50.03 65.5 2.5 62 11.8
2003-05-15 08:10:12 51°14.63 2°50.04 65.7 2.3 61 11.8
2003-05-15 08:10:16 51°14.63 2°50.04 65.9 2.4 69 11.9
2003-05-15 08:10:22 51°14.64 2°50.05 66 2.4 66 11.9
2003-05-15 08:10:26 51°14.64 2°50.05 66 2.6 65 11.8
2003-05-15 08:10:32 51°14.64 2°50.06 66 2.5 67 11.9
2003-05-15 08:10:36 51°14.64 2°50.06 65.8 2.6 62 11.8
2003-05-15 08:10:42 51°14.64 2°50.07 65.3 2.6 74 11.9
2003-05-15 08:10:46 51°14.64 2°50.07 64.6 2.6 62 11.9
2003-05-15 08:10:52 51°14.64 2°50.08 63.8 2.4 61 11.9
2003-05-15 08:10:56 51°14.65 2°50.08 63.5 2.4 61 11.9
2003-05-15 08:11:02 51°14.65 2°50.08 63 2.3 53 11.9
2003-05-15 08:11:06 51°14.65 2°50.09 63.1 2.4 66 11.9
2003-05-15 08:11:12 51°14.65 2°50.09 63 2.5 58 11.9
2003-05-15 08:11:16 51°14.65 2°50.1 63.1 2.4 62 11.9
2003-05-15 08:11:20 51°14.65 2°50.1 63.3 2.4 61 11.9
2003-05-15 08:11:26 51°14.65 2°50.11 63.2 2.2 55 11.9
2003-05-15 08:11:32 51°14.66 2°50.11 63.3 2.4 64 11.9
2003-05-15 08:11:36 51°14.66 2°50.12 63.1 2.3 60 11.9
2003-05-15 08:11:40 51°14.66 2°50.12 62.8 2.7 66 11.9
2003-05-15 08:11:46 51°14.66 2°50.13 62.5 2.4 57 11.8
2003-05-15 08:11:52 51°14.66 2°50.13 61.9 2.3 61 11.8
2003-05-15 08:11:56 51°14.66 2°50.14 60.9 2.3 52 11.9
2003-05-15 08:12:00 51°14.67 2°50.14 60.2 2.4 65 11.9
2003-05-15 08:12:06 51°14.67 2°50.14 59.8 2.3 50 11.9
2003-05-15 08:12:12 51°14.67 2°50.15 59.4 2.4 46 11.8
2003-05-15 08:12:16 51°14.67 2°50.15 58.8 2.6 62 11.9
2003-05-15 08:12:20 51°14.67 2°50.16 58.9 2.4 58 11.9
2003-05-15 08:12:26 51°14.68 2°50.16 58.8 2.5 50 11.9
2003-05-15 08:12:32 51°14.68 2°50.17 58.9 2.4 60 11.9
2003-05-15 08:12:36 51°14.68 2°50.17 58.9 2.3 51 12
2003-05-15 08:12:40 51°14.68 2°50.17 59.1 2.4 60 11.9
2003-05-15 08:12:46 51°14.68 2°50.18 59.2 2.4 53 11.9
2003-05-15 08:12:52 51°14.69 2°50.18 59.4 2.3 54 11.8
2003-05-15 08:12:56 51°14.69 2°50.19 59.7 2.5 55 11.9
2003-05-15 08:13:00 51°14.69 2°50.19 60.2 2.5 58 12
2003-05-15 08:13:06 51°14.69 2°50.2 60.5 2.3 56 11.9
2003-05-15 08:13:12 51°14.69 2°50.2 60.6 2.3 51 11.9
2003-05-15 08:13:16 51°14.69 2°50.21 60.9 2.5 62 11.9
2003-05-15 08:13:20 51°14.7 2°50.21 61.2 2.3 55 11.9
2003-05-15 08:13:26 51°14.7 2°50.21 61.6 2.3 62 11.9
2003-05-15 08:13:32 51°14.7 2°50.22 61.6 2.5 57 11.9
2003-05-15 08:13:36 51°14.7 2°50.22 61.4 2.5 63 11.9
2003-05-15 08:13:40 51°14.7 2°50.23 61 2.4 59 11.9
2003-05-15 08:13:46 51°14.7 2°50.23 60.2 2.1 61 12
2003-05-15 08:13:52 51°14.71 2°50.24 59.8 2.4 55 11.9
2003-05-15 08:13:56 51°14.71 2°50.24 58.8 2.3 59 11.8
2003-05-15 08:14:00 51°14.71 2°50.24 58.2 2.5 63 11.9
2003-05-15 08:14:06 51°14.71 2°50.25 57.8 2.4 51 11.9
2003-05-15 08:14:12 51°14.71 2°50.25 57.4 2.4 53 11.9
2003-05-15 08:14:16 51°14.72 2°50.26 57 2.4 49 12
2003-05-15 08:14:22 51°14.72 2°50.26 56.9 2.2 47 12
2003-05-15 08:14:26 51°14.72 2°50.27 56.7 2.3 50 11.9
2003-05-15 08:14:32 51°14.72 2°50.27 56.4 2.3 44 11.9
2003-05-15 08:14:36 51°14.72 2°50.27 56.5 2.5 59 12
2003-05-15 08:14:40 51°14.73 2°50.28 56.5 2.3 56 12.1
2003-05-15 08:14:46 51°14.73 2°50.28 56.2 2.3 45 12
2003-05-15 08:14:52 51°14.73 2°50.29 56.2 2.4 52 12
2003-05-15 08:14:56 51°14.73 2°50.29 56.4 2.5 57 12
2003-05-15 08:15:02 51°14.73 2°50.3 56.4 2.6 55 12.1
2003-05-15 08:15:06 51°14.74 2°50.3 56.4 2.6 53 12
2003-05-15 08:15:12 51°14.74 2°50.31 56.3 2.3 45 12
2003-05-15 08:15:16 51°14.74 2°50.31 56.3 2.4 55 12
2003-05-15 08:15:22 51°14.74 2°50.31 56.4 2.5 55 12
2003-05-15 08:15:26 51°14.74 2°50.32 56.4 2.5 47 12
2003-05-15 08:15:32 51°14.75 2°50.32 56.5 2.6 51 12
2003-05-15 08:15:36 51°14.75 2°50.33 56.6 2.7 58 12
2003-05-15 08:15:40 51°14.75 2°50.33 56.7 2.7 57 12
2003-05-15 08:15:46 51°14.75 2°50.34 56.7 2.6 44 11.9
2003-05-15 08:15:52 51°14.76 2°50.34 56.6 2.5 50 11.9
2003-05-15 08:15:56 51°14.76 2°50.35 56.6 2.5 54 12
2003-05-15 08:16:00 51°14.76 2°50.35 56.7 2.5 55 12.1
2003-05-15 08:16:06 51°14.76 2°50.35 56.7 2.5 53 12
2003-05-15 08:16:12 51°14.76 2°50.36 56.7 2.7 61 12
2003-05-15 08:16:16 51°14.77 2°50.36 56.9 2.5 41 12
2003-05-15 08:16:20 51°14.77 2°50.37 56.6 2.5 44 12
2003-05-15 08:16:26 51°14.77 2°50.37 56.8 2.6 54 12
2003-05-15 08:16:32 51°14.77 2°50.38 56.8 2.5 51 12
2003-05-15 08:16:36 51°14.77 2°50.38 56.9 2.7 52 12
2003-05-15 08:16:40 51°14.78 2°50.39 56.9 2.5 54 12.1
2003-05-15 08:16:46 51°14.78 2°50.39 56.9 2.6 56 12.1
2003-05-15 08:16:52 51°14.78 2°50.4 57.3 2.6 54 12.1
2003-05-15 08:16:56 51°14.78 2°50.4 57.2 2.5 53 12.1
2003-05-15 08:17:00 51°14.78 2°50.4 57.1 2.7 54 12.1
2003-05-15 08:17:06 51°14.79 2°50.41 57.3 2.8 61 12.1
2003-05-15 08:17:12 51°14.79 2°50.42 57.5 2.6 59 12.1
2003-05-15 08:17:16 51°14.79 2°50.42 57.5 2.6 52 12
2003-05-15 08:17:20 51°14.79 2°50.42 57.3 2.4 58 12.1
2003-05-15 08:17:26 51°14.8 2°50.43 57.6 2.4 54 12.1
2003-05-15 08:17:32 51°14.8 2°50.43 58.1 2.7 56 12.1
2003-05-15 08:17:36 51°14.8 2°50.44 58.1 2.4 55 12.1
2003-05-15 08:17:40 51°14.8 2°50.44 58.2 2.6 52 12
2003-05-15 08:17:46 51°14.8 2°50.45 58.3 2.6 60 12
2003-05-15 08:17:52 51°14.81 2°50.45 58.4 2.7 59 12.1
2003-05-15 08:17:56 51°14.81 2°50.46 58.4 2.6 58 12.1
2003-05-15 08:18:00 51°14.81 2°50.46 58.3 2.6 57 12.1
2003-05-15 08:18:06 51°14.81 2°50.47 58.3 2.6 57 12.1
2003-05-15 08:18:12 51°14.81 2°50.47 58.4 2.7 58 12.1
2003-05-15 08:18:16 51°14.82 2°50.48 58.6 2.7 58 12.1
2003-05-15 08:18:22 51°14.82 2°50.48 58.7 2.7 57 12.2
2003-05-15 08:18:26 51°14.82 2°50.49 58.7 2.6 59 12.2
2003-05-15 08:18:32 51°14.82 2°50.49 58.9 2.7 64 12.2
2003-05-15 08:18:36 51°14.82 2°50.5 58.8 2.7 59 12.1
2003-05-15 08:18:40 51°14.83 2°50.5 59.1 2.7 58 12.2
2003-05-15 08:18:46 51°14.83 2°50.51 59.3 2.7 63 12.1
2003-05-15 08:18:52 51°14.83 2°50.51 59.3 2.8 66 12.1
2003-05-15 08:18:56 51°14.83 2°50.52 59.6 2.6 51 12.1
2003-05-15 08:19:00 51°14.83 2°50.52 59.5 2.7 63 12.1
2003-05-15 08:19:06 51°14.84 2°50.53 59.6 2.8 50 12.1
2003-05-15 08:19:12 51°14.84 2°50.54 59.5 2.7 53 12.1
2003-05-15 08:19:16 51°14.84 2°50.54 58.9 2.9 62 12.1
2003-05-15 08:19:20 51°14.84 2°50.54 58.3 2.6 58 12.2
2003-05-15 08:19:26 51°14.84 2°50.55 57.8 2.6 53 12.1
2003-05-15 08:19:32 51°14.85 2°50.56 57.4 2.9 64 12.1
2003-05-15 08:19:36 51°14.85 2°50.56 56.8 2.7 44 12.1
2003-05-15 08:19:42 51°14.85 2°50.57 56.1 2.6 52 12.1
2003-05-15 08:19:46 51°14.85 2°50.57 55.8 2.6 46 12
2003-05-15 08:19:52 51°14.85 2°50.58 55.6 2.7 52 12.1
2003-05-15 08:19:56 51°14.86 2°50.58 55.6 2.8 50 12
2003-05-15 08:20:02 51°14.86 2°50.59 55.5 2.4 55 12.2
2003-05-15 08:20:06 51°14.86 2°50.59 55.3 2.6 48 12.1
2003-05-15 08:20:12 51°14.86 2°50.59 55.3 2.7 51 12.2
2003-05-15 08:20:16 51°14.87 2°50.6 55.2 2.7 53 12.1
2003-05-15 08:20:20 51°14.87 2°50.6 55.5 2.7 57 12.1
2003-05-15 08:20:26 51°14.87 2°50.61 55.8 2.7 57 12.2
2003-05-15 08:20:32 51°14.87 2°50.61 56.1 2.9 56 12.1
2003-05-15 08:20:36 51°14.88 2°50.62 56.4 2.8 50 12.1
2003-05-15 08:20:40 51°14.88 2°50.62 56.5 2.8 61 12.2
2003-05-15 08:20:46 51°14.88 2°50.63 56.6 2.7 48 12.2
2003-05-15 08:20:52 51°14.88 2°50.63 56.6 2.5 45 12
2003-05-15 08:20:56 51°14.88 2°50.64 56.6 2.7 55 12.1
2003-05-15 08:21:02 51°14.89 2°50.64 56.9 2.8 57 12.1
2003-05-15 08:21:06 51°14.89 2°50.65 57.3 2.7 55 12.2
2003-05-15 08:21:12 51°14.89 2°50.65 57.5 2.8 63 12.2
2003-05-15 08:21:16 51°14.89 2°50.66 57.4 2.7 49 12.1
2003-05-15 08:21:22 51°14.9 2°50.66 57.5 2.7 58 12.2
2003-05-15 08:21:26 51°14.9 2°50.67 57.8 2.8 54 12.2
2003-05-15 08:21:32 51°14.9 2°50.68 58 2.8 46 12.1
2003-05-15 08:21:36 51°14.9 2°50.68 58.1 3 67 12.2
2003-05-15 08:21:40 51°14.9 2°50.68 58.2 2.7 62 12.1
2003-05-15 08:21:46 51°14.91 2°50.69 58 2.7 53 12.1
2003-05-15 08:21:52 51°14.91 2°50.7 57.5 2.8 60 12.1
2003-05-15 08:21:56 51°14.91 2°50.7 57 2.9 50 12.2
2003-05-15 08:22:02 51°14.91 2°50.71 56.8 2.7 53 12.2
2003-05-15 08:22:06 51°14.91 2°50.71 56.4 2.7 55 12.2
2003-05-15 08:22:12 51°14.92 2°50.72 56.2 2.7 49 12.1
2003-05-15 08:22:16 51°14.92 2°50.72 56 2.8 56 12.1
2003-05-15 08:22:20 51°14.92 2°50.72 55.6 2.6 52 12.1
2003-05-15 08:22:26 51°14.92 2°50.73 55.5 2.9 59 12.2
2003-05-15 08:22:32 51°14.93 2°50.74 55.1 3 53 12.1
2003-05-15 08:22:36 51°14.93 2°50.74 55 3 55 12.2
2003-05-15 08:22:40 51°14.93 2°50.74 54.7 2.7 54 12.2
2003-05-15 08:22:46 51°14.93 2°50.75 54.3 2.7 52 12.2
2003-05-15 08:22:52 51°14.94 2°50.76 54.3 2.9 61 12.1
2003-05-15 08:22:56 51°14.94 2°50.76 54.6 2.8 42 12.2
2003-05-15 08:23:02 51°14.94 2°50.77 55 2.6 45 12.2
2003-05-15 08:23:06 51°14.94 2°50.77 55.1 2.8 58 12.2
2003-05-15 08:23:12 51°14.94 2°50.78 55.6 2.8 53 12.2
2003-05-15 08:23:16 51°14.95 2°50.78 55.9 2.8 52 12.2
2003-05-15 08:23:22 51°14.95 2°50.79 56.1 2.5 54 12.2
2003-05-15 08:23:26 51°14.95 2°50.79 56.4 2.6 56 12.2
2003-05-15 08:23:32 51°14.95 2°50.8 57 2.6 59 12.3
2003-05-15 08:23:36 51°14.95 2°50.8 58.1 2.5 55 12.1
2003-05-15 08:23:40 51°14.96 2°50.8 58.3 2.8 64 12.2
2003-05-15 08:23:46 51°14.96 2°50.81 58.5 2.6 64 12.2
2003-05-15 08:23:52 51°14.96 2°50.82 59.4 2.8 57 12.2
2003-05-15 08:23:56 51°14.96 2°50.82 59.9 2.6 63 12.2
2003-05-15 08:24:00 51°14.96 2°50.82 59.8 2.5 61 12.2
2003-05-15 08:24:06 51°14.97 2°50.83 60.2 2.7 61 12.2
2003-05-15 08:24:12 51°14.97 2°50.84 60.7 2.7 64 12.4
2003-05-15 08:24:16 51°14.97 2°50.84 61.3 2.6 69 12.3
2003-05-15 08:24:22 51°14.97 2°50.85 61.4 2.5 56 12.2
2003-05-15 08:24:26 51°14.97 2°50.85 61.6 2.4 68 12.3
2003-05-15 08:24:32 51°14.97 2°50.86 61.9 2.4 67 12.3
2003-05-15 08:24:36 51°14.98 2°50.86 62.3 2.3 58 12.3
2003-05-15 08:24:40 51°14.98 2°50.86 62.7 2.3 65 12.3
2003-05-15 08:24:46 51°14.98 2°50.87 63.5 2.4 70 12.3
2003-05-15 08:24:52 51°14.98 2°50.88 64.3 2.4 67 12.3
2003-05-15 08:24:56 51°14.98 2°50.88 65 2.3 72 12.3
2003-05-15 08:25:00 51°14.98 2°50.88 66 2.5 73 12.3
2003-05-15 08:25:06 51°14.98 2°50.89 67 2.4 71 12.2
2003-05-15 08:25:12 51°14.98 2°50.9 67.7 2.1 73 12.3
2003-05-15 08:25:16 51°14.98 2°50.9 68.5 2.2 71 12.3
2003-05-15 08:25:20 51°14.99 2°50.9 68.9 2.1 74 12.2
2003-05-15 08:25:26 51°14.99 2°50.91 69.8 2 68 12.1
2003-05-15 08:25:32 51°14.99 2°50.91 70.4 2.1 68 12.1
2003-05-15 08:25:36 51°14.99 2°50.92 71 2.1 80 12.1
2003-05-15 08:25:40 51°14.99 2°50.92 71.7 2.3 74 12.1
2003-05-15 08:25:46 51°14.99 2°50.93 72.5 2.1 77 12.1
2003-05-15 08:25:52 51°14.99 2°50.93 73.3 1.9 83 12.2
2003-05-15 08:25:56 51°14.99 2°50.94 73.6 2.1 76 12.2
2003-05-15 08:26:02 51°14.99 2°50.94 74.4 2.1 84 12.3
2003-05-15 08:26:06 51°14.99 2°50.95 75.4 2 82 12.3
2003-05-15 08:26:12 51°14.99 2°50.95 75.5 2.2 87 12.2
2003-05-15 08:26:16 51°14.99 2°50.95 76.2 2.2 83 12.2
2003-05-15 08:26:22 51°14.99 2°50.96 77.1 2.1 81 12.2
2003-05-15 08:26:26 51°14.99 2°50.96 78 2.1 86 12.1
2003-05-15 08:26:32 51°14.99 2°50.97 78.5 2 88 12.2
2003-05-15 08:26:36 51°14.99 2°50.97 79.2 2 90 12.3
2003-05-15 08:26:42 51°14.99 2°50.98 80.1 2.5 105 12.3
2003-05-15 08:26:46 51°14.99 2°50.98 80.4 2.1 73 12.2
2003-05-15 08:26:52 51°14.99 2°50.99 81.1 2.2 87 12.2
2003-05-15 08:26:56 51°14.99 2°50.99 81.4 2.3 95 12.2
2003-05-15 08:27:02 51°14.99 2°51 81.4 2.1 81 12.3
2003-05-15 08:27:06 51°14.99 2°51 81.6 2.1 102 12.3
2003-05-15 08:27:12 51°14.99 2°51.01 81.8 2 95 12.2
2003-05-15 08:27:16 51°14.99 2°51.01 81.5 1.9 94 12.2
2003-05-15 08:27:20 51°14.99 2°51.01 81.5 1.8 98 12.2
2003-05-15 08:27:26 51°14.99 2°51.02 81.4 1.7 87 12.2
2003-05-15 08:27:32 51°14.99 2°51.02 81.6 1.9 94 12.3
2003-05-15 08:27:36 51°14.99 2°51.03 81.4 1.8 86 12.2
2003-05-15 08:27:40 51°14.99 2°51.03 81.4 1.8 95 12.3
2003-05-15 08:27:46 51°14.99 2°51.04 81.3 1.6 94 12.2
2003-05-15 08:27:52 51°14.99 2°51.04 81.2 1.7 80 12.2
2003-05-15 08:27:56 51°14.99 2°51.04 81.1 2 106 12.2
2003-05-15 08:28:00 51°14.99 2°51.05 80.5 1.5 92 12.1
2003-05-15 08:28:06 51°14.99 2°51.05 80.3 1.8 100 12.1
2003-05-15 08:28:12 51°14.99 2°51.05 80.1 1.5 104 12.1
2003-05-15 08:28:16 51°14.99 2°51.06 79.5 1.4 76 12.1
2003-05-15 08:28:22 51°14.99 2°51.06 79.2 1.3 101 12.2
2003-05-15 08:28:26 51°14.99 2°51.06 78.7 1.3 99 12.2
2003-05-15 08:28:32 51°14.99 2°51.07 78.6 1.3 89 12.2
2003-05-15 08:28:36 51°14.99 2°51.07 78.3 1.2 91 12.1
2003-05-15 08:28:42 51°14.99 2°51.07 78.2 1.3 99 12.2
2003-05-15 08:28:46 51°14.99 2°51.07 78.3 1.1 98 12.2
2003-05-15 08:28:52 51°14.99 2°51.08 78.3 1.1 91 12.1
2003-05-15 08:28:56 51°14.99 2°51.08 78.2 1.6 132 12.2
2003-05-15 08:29:00 51°14.99 2°51.08 78.4 1.3 103 12.1
2003-05-15 08:29:06 51°14.99 2°51.08 78.5 1.2 90 12.1
2003-05-15 08:29:12 51°14.99 2°51.09 78.9 1.1 95 12.1
2003-05-15 08:29:16 51°14.98 2°51.09 79.1 1 86 12.1
2003-05-15 08:29:22 51°14.98 2°51.09 79.1 0.8 97 12.1
2003-05-15 08:29:26 51°14.98 2°51.09 79.6 1 99 12.1
2003-05-15 08:29:32 51°14.98 2°51.1 80.1 0.8 104 12.1
2003-05-15 08:29:36 51°14.98 2°51.1 80.5 1.1 108 12.1
2003-05-15 08:29:42 51°14.98 2°51.1 81.3 0.9 111 12.2
2003-05-15 08:29:46 51°14.98 2°51.1 82 0.9 114 12.2
2003-05-15 08:29:52 51°14.98 2°51.1 82.7 1 112 12.2
2003-05-15 08:29:56 51°14.98 2°51.1 83.2 1.1 123 12.2
2003-05-15 08:30:00 51°14.98 2°51.11 83.8 1 107 12.1
2003-05-15 08:30:06 51°14.98 2°51.11 84.6 1.1 117 12.1
2003-05-15 08:30:12 51°14.98 2°51.11 84.9 0.9 124 12.1
2003-05-15 08:30:16 51°14.98 2°51.11 85.5 0.9 119 12.1
2003-05-15 08:30:20 51°14.98 2°51.11 86.2 0.9 124 12
2003-05-15 08:30:26 51°14.98 2°51.11 87 0.8 121 12.1
2003-05-15 08:30:32 51°14.98 2°51.12 87.8 0.8 134 12
2003-05-15 08:30:36 51°14.97 2°51.12 88.3 0.9 144 12.1
2003-05-15 08:30:42 51°14.97 2°51.12 89.3 1 138 12
2003-05-15 08:30:46 51°14.97 2°51.12 90 0.8 131 12.1
2003-05-15 08:30:52 51°14.97 2°51.12 90.8 1 133 12.1
2003-05-15 08:30:56 51°14.97 2°51.12 91.9 0.6 113 12
2003-05-15 08:31:00 51°14.97 2°51.12 92.8 0.8 138 12.1
2003-05-15 08:31:06 51°14.97 2°51.13 93.9 1.1 157 12
2003-05-15 08:31:12 51°14.97 2°51.13 94.5 0.8 140 12
2003-05-15 08:31:16 51°14.97 2°51.13 95.8 1.2 154 12.1
2003-05-15 08:31:20 51°14.97 2°51.13 96.3 1.2 159 12
2003-05-15 08:31:26 51°14.96 2°51.13 97.5 0.7 143 12.1
2003-05-15 08:31:32 51°14.96 2°51.13 98.8 1.2 156 12
2003-05-15 08:31:36 51°14.96 2°51.13 99.7 0.8 154 12
2003-05-15 08:31:40 51°14.96 2°51.13 100.9 1 149 12
2003-05-15 08:31:46 51°14.96 2°51.13 102.2 1 159 12
2003-05-15 08:31:52 51°14.96 2°51.13 103.7 1.1 174 12
2003-05-15 08:31:56 51°14.96 2°51.14 104.8 1.1 166 12
2003-05-15 08:32:00 51°14.96 2°51.14 105.6 1 162 12
2003-05-15 08:32:06 51°14.95 2°51.14 107.1 1 151 11.9
2003-05-15 08:32:12 51°14.95 2°51.14 108.4 1 161 12
2003-05-15 08:32:16 51°14.95 2°51.14 109.6 1.2 175 12
2003-05-15 08:32:22 51°14.95 2°51.14 110.8 1.1 158 12
2003-05-15 08:32:26 51°14.95 2°51.14 112.2 1.3 177 12
2003-05-15 08:32:32 51°14.95 2°51.14 113.3 1.3 169 12
2003-05-15 08:32:36 51°14.94 2°51.14 114.5 1.3 180 12
2003-05-15 08:32:40 51°14.94 2°51.14 115.7 1.3 181 11.9
2003-05-15 08:32:46 51°14.94 2°51.14 116.8 1.2 171 12
2003-05-15 08:32:52 51°14.94 2°51.14 117.9 1.3 171 11.9
2003-05-15 08:32:56 51°14.94 2°51.14 119.5 1.2 178 12
2003-05-15 08:33:02 51°14.94 2°51.14 120.8 1.5 180 12
2003-05-15 08:33:06 51°14.93 2°51.14 121.6 1 169 12
2003-05-15 08:33:12 51°14.93 2°51.14 122.7 1.5 186 12
2003-05-15 08:33:16 51°14.93 2°51.14 123.8 1.2 177 12
2003-05-15 08:33:20 51°14.93 2°51.14 124.8 1.2 166 12
2003-05-15 08:33:26 51°14.93 2°51.14 126.2 1.6 184 12
2003-05-15 08:33:32 51°14.93 2°51.14 126.8 1.4 184 11.9
2003-05-15 08:33:36 51°14.92 2°51.14 128.2 1.3 163 11.9
2003-05-15 08:33:42 51°14.92 2°51.14 129.5 1.5 175 11.9
2003-05-15 08:33:46 51°14.92 2°51.14 130.3 1.3 182 11.9
2003-05-15 08:33:52 51°14.92 2°51.14 131.3 1.6 190 11.9
2003-05-15 08:33:56 51°14.92 2°51.14 132 1.1 175 11.9
2003-05-15 08:34:02 51°14.91 2°51.14 133.4 1.4 177 12
2003-05-15 08:34:06 51°14.91 2°51.14 134.4 1.4 185 11.9
2003-05-15 08:34:12 51°14.91 2°51.14 135.2 1.6 184 11.9
2003-05-15 08:34:16 51°14.91 2°51.14 136.1 1.4 177 11.8
2003-05-15 08:34:20 51°14.91 2°51.14 137.1 1.4 180 11.9
2003-05-15 08:34:26 51°14.9 2°51.14 138.2 1.4 184 11.9
2003-05-15 08:34:32 51°14.9 2°51.14 139.1 1.3 191 12
2003-05-15 08:34:36 51°14.9 2°51.14 140 1.4 185 11.9
2003-05-15 08:34:42 51°14.9 2°51.14 140.9 1.4 183 11.8
2003-05-15 08:34:46 51°14.9 2°51.14 142.1 1.6 191 11.9
2003-05-15 08:34:52 51°14.89 2°51.14 142.8 1.4 188 11.9
2003-05-15 08:34:56 51°14.89 2°51.14 143.8 1.5 195 11.9
2003-05-15 08:35:00 51°14.89 2°51.14 144.9 1.5 189 11.9
2003-05-15 08:35:06 51°14.89 2°51.14 145.8 1.5 189 11.8
2003-05-15 08:35:12 51°14.89 2°51.14 146.7 1.8 186 11.8
2003-05-15 08:35:16 51°14.88 2°51.14 147.3 1.8 174 11.8
2003-05-15 08:35:22 51°14.88 2°51.14 147.6 2.3 175 11.8
2003-05-15 08:35:26 51°14.88 2°51.14 146.9 2.4 169 11.8
2003-05-15 08:35:32 51°14.87 2°51.14 145.5 2.9 162 11.8
2003-05-15 08:35:36 51°14.87 2°51.14 143.6 3.2 159 11.8
2003-05-15 08:35:40 51°14.87 2°51.14 141 3.6 154 11.7
2003-05-15 08:35:46 51°14.86 2°51.15 137.5 3.7 148 11.7
2003-05-15 08:35:52 51°14.86 2°51.15 134.2 4.2 144 11.7
2003-05-15 08:35:56 51°14.85 2°51.16 130.5 4.3 142 11.7
2003-05-15 08:36:00 51°14.85 2°51.16 127.8 4.6 142 11.7
2003-05-15 08:36:06 51°14.84 2°51.17 125.6 4.8 133 11.6
2003-05-15 08:36:12 51°14.84 2°51.18 125.2 5.1 136 11.6
2003-05-15 08:36:16 51°14.83 2°51.19 124.6 5.2 133 11.6
2003-05-15 08:36:22 51°14.83 2°51.2 124.4 5.6 137 11.5
2003-05-15 08:36:26 51°14.82 2°51.21 124.1 5.5 132 11.6
2003-05-15 08:36:32 51°14.82 2°51.22 123.9 5.8 138 11.4
2003-05-15 08:36:36 51°14.81 2°51.22 124 5.8 126 11.4
2003-05-15 08:36:40 51°14.81 2°51.23 124.2 6.1 136 11.4
2003-05-15 08:36:46 51°14.8 2°51.24 124.3 5.9 129 11.4
2003-05-15 08:36:52 51°14.79 2°51.26 124.2 6.1 136 11.4
2003-05-15 08:36:56 51°14.79 2°51.26 123.5 6 130 11.3
2003-05-15 08:37:00 51°14.78 2°51.27 121.6 6.1 129 11.2
2003-05-15 08:37:06 51°14.78 2°51.28 120.1 6.1 124 11.2
2003-05-15 08:37:12 51°14.77 2°51.3 118.3 6.3 129 11.2
2003-05-15 08:37:16 51°14.77 2°51.31 115.2 5.9 117 11.2
2003-05-15 08:37:20 51°14.77 2°51.32 113.4 6.2 127 11.2
2003-05-15 08:37:26 51°14.76 2°51.33 110.2 5.9 110 11.1
2003-05-15 08:37:32 51°14.76 2°51.34 109 6 115 11.1
2003-05-15 08:37:36 51°14.75 2°51.35 107.6 6 113 11
2003-05-15 08:37:42 51°14.75 2°51.37 106.3 5.9 109 11
2003-05-15 08:37:46 51°14.75 2°51.38 106.3 6 115 11
2003-05-15 08:37:52 51°14.74 2°51.39 105.7 6 109 10.9
2003-05-15 08:37:56 51°14.74 2°51.4 106.3 6.1 114 10.9
2003-05-15 08:38:02 51°14.74 2°51.42 106.7 6.1 116 10.9
2003-05-15 08:38:06 51°14.73 2°51.43 107.3 6.1 112 10.9
2003-05-15 08:38:12 51°14.73 2°51.44 108.6 6.3 116 10.9
2003-05-15 08:38:16 51°14.73 2°51.45 110 6.2 117 10.8
2003-05-15 08:38:20 51°14.72 2°51.46 113.1 6.4 121 10.7
2003-05-15 08:38:26 51°14.72 2°51.48 113.6 6.2 118 10.6
2003-05-15 08:38:32 51°14.71 2°51.49 115.1 6.4 129 10.6
2003-05-15 08:38:36 51°14.71 2°51.5 114.8 6.3 114 10.7
2003-05-15 08:38:42 51°14.7 2°51.51 116.7 6.4 125 10.7
2003-05-15 08:38:46 51°14.7 2°51.52 116.4 6.2 120 10.7
2003-05-15 08:38:52 51°14.69 2°51.54 117.1 6.4 125 10.7
2003-05-15 08:38:56 51°14.69 2°51.55 117.5 6.4 120 10.6
2003-05-15 08:39:02 51°14.68 2°51.56 118.8 6.5 127 10.6
2003-05-15 08:39:06 51°14.68 2°51.57 118.9 6.4 124 10.6
2003-05-15 08:39:12 51°14.67 2°51.58 119.9 6.5 126 10.6
2003-05-15 08:39:16 51°14.67 2°51.59 119.9 6.4 128 10.5
2003-05-15 08:39:22 51°14.66 2°51.61 120.2 6.5 128 10.5
2003-05-15 08:39:26 51°14.66 2°51.62 120.1 6.4 128 10.6
2003-05-15 08:39:32 51°14.65 2°51.63 120.3 6.5 131 10.5
2003-05-15 08:39:36 51°14.65 2°51.64 120 6.5 124 10.4
2003-05-15 08:39:40 51°14.64 2°51.65 119.9 6.5 131 10.4
2003-05-15 08:39:46 51°14.63 2°51.66 120.3 6.4 125 10.4
2003-05-15 08:39:52 51°14.63 2°51.67 119.6 6.5 128 10.3
2003-05-15 08:39:56 51°14.62 2°51.68 120.2 6.5 128 10.3
2003-05-15 08:40:00 51°14.62 2°51.69 119.4 6.6 130 10.2
2003-05-15 08:40:06 51°14.61 2°51.71 119.7 6.4 126 10.2
2003-05-15 08:40:12 51°14.61 2°51.72 119.7 6.6 131 10.2
2003-05-15 08:40:16 51°14.6 2°51.73 119 6.4 121 10.1
2003-05-15 08:40:20 51°14.6 2°51.74 119.3 6.5 129 10.2
2003-05-15 08:40:26 51°14.59 2°51.75 119 6.5 127 10.2
2003-05-15 08:40:32 51°14.58 2°51.77 118.7 6.4 125 10.1
2003-05-15 08:40:36 51°14.58 2°51.78 118.9 6.5 128 10.1
2003-05-15 08:40:40 51°14.58 2°51.79 118.1 6.5 127 10
2003-05-15 08:40:46 51°14.57 2°51.8 118.4 6.6 123 10
2003-05-15 08:40:52 51°14.56 2°51.81 118.4 6.6 128 10
2003-05-15 08:40:56 51°14.56 2°51.82 118.4 6.4 121 10
2003-05-15 08:41:02 51°14.55 2°51.84 118.6 6.8 131 9.9
2003-05-15 08:41:06 51°14.55 2°51.85 118 6.4 120 9.9
2003-05-15 08:41:12 51°14.54 2°51.86 118.3 6.7 128 9.9
2003-05-15 08:41:16 51°14.54 2°51.87 117.6 6.5 118 9.8
2003-05-15 08:41:22 51°14.53 2°51.89 118.1 6.7 126 9.8